Time;durP1;ratioP1;P1;durP2;ratioP2;P2;SDS_P1;SDS_P2;PMS_P1;PMS_P2;Temp;Humidity;BMP_temperature;BMP_pressure;BME280_temperature;BME280_humidity;BME280_pressure;Samples;Min_cycle;Max_cycle;Signal;HPM_P1;HPM_P2
2022/07/26 00:00:43;;;;;;;14.13;11.20;;;;;;;22.04;77.47;64283.38;5046551;28;20502;-78
2022/07/26 00:03:11;;;;;;;15.40;12.52;;;;;;;21.97;78.21;64273.44;5046072;28;20297;-77
2022/07/26 00:05:38;;;;;;;12.85;11.45;;;;;;;21.93;78.11;64272.38;5043685;28;20500;-78
2022/07/26 00:08:12;;;;;;;13.25;11.35;;;;;;;21.87;78.82;64258.34;5044882;28;20228;-77
2022/07/26 00:10:41;;;;;;;13.70;11.63;;;;;;;21.81;78.96;64252.06;5045454;28;20209;-78
2022/07/26 00:13:08;;;;;;;13.85;12.55;;;;;;;21.81;79.77;64256.72;5043681;28;20534;-78
2022/07/26 00:15:36;;;;;;;13.35;11.75;;;;;;;21.68;80.06;64246.75;5039837;28;20308;-77
2022/07/26 00:18:03;;;;;;;14.05;12.35;;;;;;;21.73;80.36;64246.28;5044112;28;20291;-78
2022/07/26 00:20:31;;;;;;;14.75;10.73;;;;;;;21.63;81.24;64241.00;5044578;28;20204;-78
2022/07/26 00:22:58;;;;;;;13.77;12.05;;;;;;;21.55;81.39;64230.56;5043065;28;20221;-78
2022/07/26 00:25:25;;;;;;;14.68;12.05;;;;;;;21.57;80.90;64237.34;5045643;28;20941;-78
2022/07/26 00:27:52;;;;;;;14.10;11.95;;;;;;;21.56;80.32;64234.22;5044392;28;20228;-78
2022/07/26 00:30:19;;;;;;;12.50;11.25;;;;;;;21.58;80.71;64231.13;5043391;28;20206;-77
2022/07/26 00:32:46;;;;;;;13.13;11.73;;;;;;;21.55;80.78;64230.06;5039111;28;20240;-77
2022/07/26 00:35:13;;;;;;;13.57;12.15;;;;;;;21.44;81.36;64218.56;5044037;28;20275;-78
2022/07/26 00:37:41;;;;;;;11.95;10.75;;;;;;;21.46;81.07;64225.84;5044299;28;20263;-77
2022/07/26 00:40:10;;;;;;;10.60;9.60;;;;;;;21.39;81.14;64208.69;5044540;28;20209;-78
2022/07/26 00:42:37;;;;;;;11.15;10.07;;;;;;;21.32;80.33;64200.84;5039459;28;20542;-79
2022/07/26 00:45:06;;;;;;;14.15;10.02;;;;;;;21.21;80.20;64197.16;5044123;28;20244;-77
2022/07/26 00:47:33;;;;;;;10.68;9.02;;;;;;;21.16;79.88;64191.91;5043876;28;20553;-78
2022/07/26 00:50:00;;;;;;;10.75;9.65;;;;;;;21.15;79.91;64186.22;5044034;28;20506;-79
2022/07/26 00:52:27;;;;;;;10.45;9.55;;;;;;;20.99;81.22;64174.69;5043748;28;20260;-78
2022/07/26 00:54:55;;;;;;;10.15;9.15;;;;;;;20.90;81.62;64160.09;5043668;28;20213;-78
2022/07/26 00:57:24;;;;;;;10.75;9.65;;;;;;;20.83;82.44;64152.78;5044826;28;20538;-77
2022/07/26 00:59:51;;;;;;;9.82;8.85;;;;;;;20.72;82.36;64140.78;5041965;28;20405;-77
2022/07/26 01:02:18;;;;;;;9.57;8.65;;;;;;;20.61;82.68;64132.41;5043841;28;20366;-77
2022/07/26 01:04:46;;;;;;;11.80;10.60;;;;;;;20.60;83.12;64128.78;5042286;28;20204;-77
2022/07/26 01:07:14;;;;;;;11.25;9.95;;;;;;;20.62;83.62;64133.47;5042863;28;20225;-77
2022/07/26 01:09:41;;;;;;;10.93;9.68;;;;;;;20.60;82.96;64131.38;5038372;28;20248;-77
2022/07/26 01:12:11;;;;;;;11.45;9.38;;;;;;;20.56;82.47;64125.13;5056668;28;20274;-76
2022/07/26 01:14:38;;;;;;;10.02;9.13;;;;;;;20.59;83.23;64132.91;5043911;28;20252;-77
2022/07/26 01:17:05;;;;;;;9.88;8.65;;;;;;;20.57;82.71;64126.16;5041611;28;20241;-77
2022/07/26 01:19:32;;;;;;;11.88;9.05;;;;;;;20.50;81.32;64124.03;5043772;28;20209;-77
2022/07/26 01:22:00;;;;;;;10.02;8.55;;;;;;;20.53;80.24;64118.88;5057516;28;20225;-78
2022/07/26 01:24:27;;;;;;;9.55;8.68;;;;;;;20.46;79.11;64119.88;5043078;28;20211;-77
2022/07/26 01:26:55;;;;;;;11.57;9.75;;;;;;;20.46;79.59;64121.94;5042186;28;20545;-77
2022/07/26 01:29:23;;;;;;;9.15;8.30;;;;;;;20.36;80.10;64104.25;5047310;28;20532;-78
2022/07/26 01:31:50;;;;;;;9.30;8.40;;;;;;;20.31;80.48;64098.50;5048602;28;20248;-77
2022/07/26 01:34:18;;;;;;;8.93;8.23;;;;;;;20.36;80.45;64109.41;5062200;28;20380;-77
2022/07/26 01:36:45;;;;;;;8.85;8.02;;;;;;;20.32;80.74;64100.06;5044380;28;20240;-77
2022/07/26 01:39:14;;;;;;;9.27;8.38;;;;;;;20.22;81.22;64092.22;5046413;28;20379;-77
2022/07/26 01:41:41;;;;;;;9.32;8.35;;;;;;;20.24;80.60;64091.22;5045979;28;20508;-78
2022/07/26 01:44:08;;;;;;;9.75;8.88;;;;;;;20.24;81.09;64091.22;5047114;28;20258;-77
2022/07/26 01:46:35;;;;;;;9.43;8.52;;;;;;;20.23;80.43;64092.75;5044914;28;20216;-78
2022/07/26 01:49:02;;;;;;;9.13;8.32;;;;;;;20.17;79.54;64084.41;5046697;28;20232;-78
2022/07/26 01:51:29;;;;;;;9.50;8.60;;;;;;;20.25;79.80;64097.94;5047364;28;20213;-77
2022/07/26 01:53:56;;;;;;;9.75;8.82;;;;;;;20.23;79.55;64097.91;5049187;28;20256;-78
2022/07/26 01:56:24;;;;;;;9.95;8.80;;;;;;;20.21;79.63;64096.34;5041796;28;20232;-77
2022/07/26 01:58:51;;;;;;;10.30;8.45;;;;;;;20.04;80.89;64073.41;5047781;28;20486;-78
2022/07/26 02:01:19;;;;;;;10.13;8.65;;;;;;;19.99;82.22;64070.25;5049748;28;20441;-78
2022/07/26 02:03:45;;;;;;;9.32;8.43;;;;;;;19.95;82.31;64061.44;5043210;28;20280;-78
2022/07/26 02:06:12;;;;;;;9.80;8.90;;;;;;;20.02;82.45;64068.75;5046759;28;20205;-78
2022/07/26 02:08:39;;;;;;;11.95;9.55;;;;;;;20.02;83.02;64073.41;5046460;28;20517;-77
2022/07/26 02:11:06;;;;;;;10.20;9.20;;;;;;;19.98;82.91;64064.06;5047727;28;20202;-77
2022/07/26 02:13:36;;;;;;;9.48;8.63;;;;;;;19.97;83.64;64065.59;5044268;28;20221;-77
2022/07/26 02:16:05;;;;;;;10.20;8.68;;;;;;;19.98;83.86;64064.06;5046674;28;20419;-78
2022/07/26 02:18:32;;;;;;;13.27;9.50;;;;;;;19.98;83.58;64064.59;5046494;28;20296;-77
2022/07/26 02:21:00;;;;;;;9.07;8.30;;;;;;;19.89;84.19;64052.06;5043596;28;20194;-78
2022/07/26 02:23:28;;;;;;;11.50;9.70;;;;;;;19.87;84.04;64057.75;5045945;28;20225;-77
2022/07/26 02:25:55;;;;;;;9.75;8.77;;;;;;;19.85;84.13;64053.06;5045844;28;20197;-78
2022/07/26 02:28:23;;;;;;;9.80;9.00;;;;;;;19.79;83.98;64046.81;5045491;28;20221;-77
2022/07/26 02:30:52;;;;;;;10.07;9.07;;;;;;;19.83;84.38;64051.00;5041899;28;20194;-77
2022/07/26 02:33:19;;;;;;;10.07;9.10;;;;;;;19.84;84.25;64049.44;5037437;28;20245;-78
2022/07/26 02:35:47;;;;;;;9.63;8.73;;;;;;;19.72;85.06;64042.63;5046109;28;20237;-77
2022/07/26 02:38:16;;;;;;;9.02;8.00;;;;;;;19.73;84.28;64043.13;5046610;28;20226;-78
2022/07/26 02:40:43;;;;;;;8.90;8.20;;;;;;;19.72;82.17;64036.94;5034451;28;20490;-78
2022/07/26 02:43:11;;;;;;;8.43;7.70;;;;;;;19.69;82.25;64041.56;5027326;28;20248;-78
2022/07/26 02:45:38;;;;;;;9.20;8.30;;;;;;;19.66;82.43;64033.78;5039769;28;20265;-77
2022/07/26 02:48:08;;;;;;;10.98;9.73;;;;;;;19.60;84.27;64027.53;5043247;28;20218;-77
2022/07/26 02:50:35;;;;;;;9.02;8.23;;;;;;;19.72;84.09;64045.22;5045120;28;20240;-78
2022/07/26 02:53:02;;;;;;;10.65;9.48;;;;;;;19.63;84.65;64032.72;5045968;28;20402;-77
2022/07/26 02:55:29;;;;;;;9.70;7.93;;;;;;;19.58;85.09;64020.28;5046113;28;20201;-78
2022/07/26 02:57:56;;;;;;;10.27;9.10;;;;;;;19.63;84.84;64032.72;5042483;28;20241;-77
2022/07/26 03:00:25;;;;;;;10.15;8.95;;;;;;;19.68;84.65;64033.28;5048797;28;20264;-78
2022/07/26 03:02:53;;;;;;;9.55;8.70;;;;;;;19.59;84.26;64025.97;5048764;28;20271;-77
2022/07/26 03:05:22;;;;;;;10.05;9.05;;;;;;;19.59;84.13;64031.13;5047041;28;20198;-78
2022/07/26 03:07:49;;;;;;;8.85;8.05;;;;;;;19.73;82.65;64037.97;5037704;28;20588;-78
2022/07/26 03:10:16;;;;;;;9.68;8.77;;;;;;;19.70;82.13;64032.78;5059623;28;20254;-77
2022/07/26 03:12:44;;;;;;;9.70;8.77;;;;;;;19.67;82.89;64034.31;5045977;28;20249;-77
2022/07/26 03:15:11;;;;;;;9.32;8.05;;;;;;;19.63;82.88;64030.66;5061265;28;20201;-78
2022/07/26 03:17:38;;;;;;;10.00;9.00;;;;;;;19.65;83.61;64029.63;5045192;28;20542;-77
2022/07/26 03:20:06;;;;;;;10.48;9.38;;;;;;;19.61;83.90;64028.56;5048026;28;20271;-78
2022/07/26 03:22:35;;;;;;;8.65;7.85;;;;;;;19.57;83.46;64023.88;5056484;28;20252;-78
2022/07/26 03:25:02;;;;;;;8.73;7.93;;;;;;;19.60;82.87;64027.00;5046330;28;20205;-78
2022/07/26 03:27:28;;;;;;;8.80;7.90;;;;;;;19.60;82.36;64027.00;5043377;28;20543;-77
2022/07/26 03:29:56;;;;;;;8.43;7.57;;;;;;;19.68;82.07;64030.16;5045149;28;20216;-78
2022/07/26 03:32:22;;;;;;;9.57;8.35;;;;;;;19.63;83.02;64033.22;5058863;28;20264;-77
2022/07/26 03:34:49;;;;;;;9.40;8.60;;;;;;;19.30;87.71;63998.81;5044243;28;20213;-78
2022/07/26 03:37:17;;;;;;;10.63;9.63;;;;;;;19.36;87.63;64003.00;5045634;28;20236;-77
2022/07/26 03:39:45;;;;;;;10.93;9.02;;;;;;;19.47;87.68;64013.97;5044638;28;20207;-78
2022/07/26 03:42:12;;;;;;;9.60;8.70;;;;;;;19.53;87.11;64020.22;5045195;28;20363;-77
2022/07/26 03:44:39;;;;;;;10.20;8.68;;;;;;;19.58;87.41;64019.75;5041999;28;20219;-77
2022/07/26 03:47:06;;;;;;;10.48;9.38;;;;;;;19.64;87.73;64034.28;5044489;28;20281;-77
2022/07/26 03:49:33;;;;;;;9.82;8.85;;;;;;;19.71;87.63;64039.00;5045592;28;20502;-78
2022/07/26 03:52:00;;;;;;;10.20;9.20;;;;;;;19.74;88.26;64044.72;5044629;28;20225;-78
2022/07/26 03:54:27;;;;;;;10.52;9.50;;;;;;;19.82;87.93;64052.53;5041415;28;20213;-78
2022/07/26 03:56:54;;;;;;;11.88;9.05;;;;;;;19.93;87.97;64056.75;5044919;28;20240;-77
2022/07/26 03:59:22;;;;;;;9.30;8.40;;;;;;;19.99;87.94;64070.25;5058011;28;20202;-77
2022/07/26 04:01:50;;;;;;;11.25;8.93;;;;;;;20.16;86.93;64088.03;5043290;28;20231;-79
2022/07/26 04:04:18;;;;;;;10.50;9.05;;;;;;;20.24;86.98;64091.22;5044716;28;20272;-78
2022/07/26 04:06:47;;;;;;;10.05;9.15;;;;;;;20.38;87.05;64105.81;5045587;28;20548;-77
2022/07/26 04:09:15;;;;;;;12.30;9.15;;;;;;;20.50;85.13;64124.03;5060089;28;20197;-79
2022/07/26 04:11:42;;;;;;;9.95;8.90;;;;;;;20.61;84.41;64132.41;5040162;28;20205;-78
2022/07/26 04:14:11;;;;;;;10.40;9.27;;;;;;;20.70;83.81;64136.63;5045223;28;20213;-78
2022/07/26 04:16:38;;;;;;;10.43;9.35;;;;;;;20.80;83.81;64154.81;5046269;28;20282;-77
2022/07/26 04:19:05;;;;;;;10.98;9.82;;;;;;;20.92;82.07;64167.34;5045730;28;20198;-77
2022/07/26 04:21:32;;;;;;;10.27;9.18;;;;;;;21.02;86.16;64174.72;5039389;28;20236;-78
2022/07/26 04:23:59;;;;;;;14.00;9.52;;;;;;;21.09;85.97;64185.13;5044548;28;20255;-77
2022/07/26 04:26:28;;;;;;;11.00;9.90;;;;;;;21.18;86.17;64191.41;5042505;28;20201;-77
2022/07/26 04:28:55;;;;;;;10.13;9.13;;;;;;;21.13;82.62;64186.19;5043987;28;20201;-78
2022/07/26 04:31:25;;;;;;;11.45;10.35;;;;;;;21.17;82.70;64185.72;5054227;28;20468;-77
2022/07/26 04:33:52;;;;;;;10.95;9.68;;;;;;;21.26;82.39;64204.97;5043850;28;20201;-78
2022/07/26 04:36:19;;;;;;;11.38;10.20;;;;;;;21.42;82.40;64217.00;5043384;28;20520;-77
2022/07/26 04:38:46;;;;;;;12.35;10.30;;;;;;;21.54;80.62;64229.53;5044134;28;20229;-77
2022/07/26 04:41:14;;;;;;;17.55;9.63;;;;;;;21.62;82.87;64237.91;5041297;28;20441;-77
2022/07/26 04:43:40;;;;;;;13.38;10.98;;;;;;;21.53;82.24;64228.50;5043778;28;20287;-78
2022/07/26 04:46:07;;;;;;;11.60;9.98;;;;;;;21.68;81.22;64241.56;5043627;28;20520;-77
2022/07/26 04:48:36;;;;;;;12.25;9.50;;;;;;;21.84;80.04;64260.38;5043725;28;20252;-78
2022/07/26 04:51:04;;;;;;;11.25;10.05;;;;;;;22.02;78.46;64278.69;5038459;28;20213;-77
2022/07/26 04:53:31;;;;;;;13.02;9.95;;;;;;;22.20;78.01;64294.88;5056590;28;20405;-77
2022/07/26 04:55:57;;;;;;;15.38;10.23;;;;;;;22.04;78.37;64280.78;5043756;28;20248;-77
2022/07/26 04:58:25;;;;;;;10.70;9.70;;;;;;;21.95;80.42;64274.47;5041170;28;20248;-77
2022/07/26 05:00:52;;;;;;;10.75;9.65;;;;;;;22.05;80.56;64281.81;5043271;28;20669;-78
2022/07/26 05:03:20;;;;;;;12.25;10.80;;;;;;;21.94;80.30;64270.84;5044740;28;20232;-77
2022/07/26 05:05:49;;;;;;;11.73;9.88;;;;;;;21.98;79.27;64275.03;5047627;28;20218;-77
2022/07/26 05:08:16;;;;;;;12.07;10.90;;;;;;;22.08;80.95;64284.94;5047155;28;20221;-77
2022/07/26 05:10:43;;;;;;;11.68;10.48;;;;;;;22.15;79.99;64295.38;5048477;28;20251;-77
2022/07/26 05:13:10;;;;;;;12.18;10.00;;;;;;;22.17;76.84;64296.94;5049125;28;20267;-77
2022/07/26 05:15:37;;;;;;;12.50;9.98;;;;;;;22.22;77.44;64294.38;5049009;28;20209;-77
2022/07/26 05:18:06;;;;;;;12.05;10.52;;;;;;;22.32;77.31;64313.16;5044784;28;20283;-78
2022/07/26 05:20:34;;;;;;;15.13;10.45;;;;;;;22.45;76.34;64326.72;5048438;28;20201;-79
2022/07/26 05:23:02;;;;;;;11.05;10.05;;;;;;;22.56;75.77;64338.25;5047793;28;20279;-78
2022/07/26 05:25:29;;;;;;;12.55;10.32;;;;;;;22.58;74.73;64339.81;5046803;28;20393;-77
2022/07/26 05:27:56;;;;;;;16.08;11.27;;;;;;;22.48;75.67;64329.34;5046756;28;20225;-77
2022/07/26 05:30:23;;;;;;;13.13;10.10;;;;;;;22.53;75.18;64329.91;5048158;28;20202;-77
2022/07/26 05:32:50;;;;;;;12.50;11.30;;;;;;;22.61;75.96;64337.75;5047994;28;20632;-77
2022/07/26 05:35:17;;;;;;;14.80;10.95;;;;;;;22.63;75.40;64340.38;5048013;28;20208;-79
2022/07/26 05:37:44;;;;;;;11.77;10.57;;;;;;;22.71;77.88;64351.34;5048548;28;20248;-78
2022/07/26 05:40:13;;;;;;;14.55;11.15;;;;;;;22.95;75.66;64378.53;5047840;28;20216;-77
2022/07/26 05:42:40;;;;;;;15.88;11.63;;;;;;;23.09;75.94;64390.03;5047674;28;20256;-78
2022/07/26 05:45:08;;;;;;;15.82;11.05;;;;;;;23.19;76.38;64403.09;5043163;28;20205;-78
2022/07/26 05:47:35;;;;;;;16.38;10.85;;;;;;;23.17;77.29;64395.81;5047727;28;20293;-78
2022/07/26 05:50:02;;;;;;;14.13;11.00;;;;;;;23.30;76.84;64417.72;5047991;28;20201;-78
2022/07/26 05:52:29;;;;;;;15.40;10.95;;;;;;;23.44;77.74;64429.78;5047767;28;20225;-77
2022/07/26 05:54:56;;;;;;;14.98;10.80;;;;;;;23.63;75.64;64449.13;5038940;28;20201;-77
2022/07/26 05:57:24;;;;;;;19.13;12.02;;;;;;;23.69;77.67;64453.34;5047838;28;20291;-77
2022/07/26 05:59:51;;;;;;;16.85;12.02;;;;;;;23.78;74.73;64460.16;5047526;28;20216;-77
2022/07/26 06:02:18;;;;;;;18.58;12.05;;;;;;;23.80;75.71;64464.31;5043953;28;20248;-78
2022/07/26 06:04:46;;;;;;;13.43;11.38;;;;;;;23.78;80.36;64459.66;5055089;28;20544;-77
2022/07/26 06:07:12;;;;;;;16.85;11.80;;;;;;;23.96;80.00;64486.28;5047115;28;20231;-77
2022/07/26 06:09:39;;;;;;;13.63;11.10;;;;;;;24.15;77.45;64500.44;5046666;28;20209;-78
2022/07/26 06:12:06;;;;;;;11.85;10.73;;;;;;;24.27;76.70;64515.63;5044987;28;20237;-78
2022/07/26 06:14:35;;;;;;;11.50;10.55;;;;;;;24.29;76.57;64513.03;5046898;28;20423;-77
2022/07/26 06:17:03;;;;;;;12.52;11.30;;;;;;;24.35;76.14;64524.50;5046576;28;20229;-77
2022/07/26 06:19:30;;;;;;;14.80;11.65;;;;;;;24.35;76.32;64521.41;5046325;28;20205;-77
2022/07/26 06:21:57;;;;;;;13.77;12.25;;;;;;;24.15;77.77;64497.84;5040758;28;20590;-78
2022/07/26 06:24:24;;;;;;;12.00;10.88;;;;;;;24.18;78.19;64506.22;5046394;28;20206;-77
2022/07/26 06:26:52;;;;;;;13.25;11.90;;;;;;;24.38;76.28;64524.53;5046210;28;20275;-78
2022/07/26 06:29:19;;;;;;;12.57;11.10;;;;;;;24.58;76.36;64553.81;5044140;28;20205;-77
2022/07/26 06:31:48;;;;;;;14.10;12.05;;;;;;;24.73;74.31;64561.72;5045498;28;20285;-77
2022/07/26 06:34:14;;;;;;;15.27;11.88;;;;;;;24.75;75.22;64560.69;5046667;28;20355;-77
2022/07/26 06:36:42;;;;;;;12.73;10.80;;;;;;;24.70;74.93;64555.97;5045336;28;20211;-77
2022/07/26 06:39:09;;;;;;;12.07;10.90;;;;;;;24.73;73.77;64564.31;5042858;28;20197;-77
2022/07/26 06:41:36;;;;;;;11.98;10.73;;;;;;;24.80;73.94;64571.13;5045733;28;20211;-77
2022/07/26 06:44:03;;;;;;;14.43;11.82;;;;;;;24.87;73.19;64578.47;5045786;28;20217;-77
2022/07/26 06:46:30;;;;;;;12.70;11.45;;;;;;;25.04;72.31;64591.06;5045978;28;20220;-77
2022/07/26 06:48:59;;;;;;;13.20;11.85;;;;;;;25.05;71.29;64594.72;5043390;28;20209;-77
2022/07/26 06:51:26;;;;;;;15.02;11.73;;;;;;;24.80;72.42;64566.44;5046110;28;20217;-78
2022/07/26 06:53:53;;;;;;;14.73;11.75;;;;;;;24.93;71.16;64582.69;5045820;28;20213;-77
2022/07/26 06:56:20;;;;;;;13.57;12.07;;;;;;;24.83;71.07;64577.41;5043315;28;20201;-77
2022/07/26 06:58:47;;;;;;;12.82;11.38;;;;;;;24.93;70.53;64579.53;5044863;28;20545;-77
2022/07/26 07:01:15;;;;;;;13.23;12.02;;;;;;;25.14;69.16;64601.53;5049909;28;20219;-78
2022/07/26 07:03:41;;;;;;;13.40;11.93;;;;;;;24.97;69.02;64588.94;5050756;28;20475;-78
2022/07/26 07:06:10;;;;;;;15.20;12.38;;;;;;;25.07;69.29;64599.44;5042891;28;20243;-77
2022/07/26 07:08:37;;;;;;;19.73;13.02;;;;;;;25.31;69.01;64621.97;5040348;28;20245;-78
2022/07/26 07:11:04;;;;;;;18.35;12.60;;;;;;;25.10;66.83;64602.56;5044496;28;20205;-77
2022/07/26 07:13:31;;;;;;;14.45;12.93;;;;;;;25.00;66.73;64595.22;5039148;28;20454;-77
2022/07/26 07:15:58;;;;;;;16.67;12.68;;;;;;;24.98;66.92;64590.53;5044501;28;20225;-77
2022/07/26 07:18:25;;;;;;;14.48;12.18;;;;;;;25.27;67.39;64619.84;5044790;28;20560;-77
2022/07/26 07:20:52;;;;;;;18.83;12.65;;;;;;;25.25;64.33;64618.28;5044262;28;20224;-77
2022/07/26 07:23:22;;;;;;;20.75;13.52;;;;;;;25.36;66.39;64627.22;5043724;28;20237;-78
2022/07/26 07:25:49;;;;;;;21.23;12.80;;;;;;;25.68;66.37;64660.75;5044389;28;20212;-78
2022/07/26 07:28:16;;;;;;;15.68;12.48;;;;;;;25.91;64.72;64684.31;5041455;28;20217;-76
2022/07/26 07:30:43;;;;;;;15.90;14.05;;;;;;;26.04;63.21;64701.09;5044729;28;20205;-77
2022/07/26 07:33:12;;;;;;;19.67;13.40;;;;;;;26.07;61.96;64706.34;5036013;28;20472;-77
2022/07/26 07:35:40;;;;;;;18.92;13.75;;;;;;;25.92;63.46;64688.50;5043709;28;20213;-77
2022/07/26 07:38:07;;;;;;;20.80;13.43;;;;;;;26.13;62.25;64707.94;5041355;28;20237;-77
2022/07/26 07:40:36;;;;;;;18.02;13.02;;;;;;;26.42;60.16;64743.03;5035494;28;20258;-78
2022/07/26 07:43:03;;;;;;;17.67;13.30;;;;;;;26.50;62.00;64746.19;5055395;28;20233;-77
2022/07/26 07:45:30;;;;;;;19.60;13.85;;;;;;;26.44;59.85;64737.28;5040994;28;20210;-77
2022/07/26 07:47:57;;;;;;;18.50;13.90;;;;;;;26.36;59.96;64728.38;5039280;28;20225;-77
2022/07/26 07:50:24;;;;;;;19.55;13.85;;;;;;;26.33;59.65;64727.84;5042112;28;20197;-77
2022/07/26 07:52:51;;;;;;;16.63;14.40;;;;;;;26.30;58.13;64727.31;5038157;28;20291;-77
2022/07/26 07:55:18;;;;;;;15.55;13.13;;;;;;;26.39;59.07;64736.75;5040557;28;20432;-77
2022/07/26 07:57:46;;;;;;;16.60;12.98;;;;;;;26.36;58.90;64731.00;5039014;28;20237;-78
2022/07/26 08:00:15;;;;;;;19.27;14.35;;;;;;;26.30;58.63;64724.72;5033584;28;20225;-77
2022/07/26 08:02:42;;;;;;;18.30;14.40;;;;;;;26.54;59.33;64747.75;5043756;28;20233;-78
2022/07/26 08:05:09;;;;;;;20.80;14.00;;;;;;;26.70;58.31;64771.88;5045568;28;20397;-77
2022/07/26 08:07:36;;;;;;;16.00;13.52;;;;;;;26.98;58.27;64799.16;5035976;28;20572;-77
2022/07/26 08:10:03;;;;;;;18.33;14.00;;;;;;;27.06;54.50;64810.19;5038715;28;20207;-77
2022/07/26 08:12:30;;;;;;;17.35;14.50;;;;;;;27.10;55.23;64813.84;5041749;28;20560;-77
2022/07/26 08:14:59;;;;;;;16.00;13.50;;;;;;;27.05;54.80;64803.91;5043605;28;20224;-77
2022/07/26 08:17:25;;;;;;;18.17;13.32;;;;;;;27.39;54.96;64841.69;5034562;28;20275;-78
2022/07/26 08:19:52;;;;;;;14.93;12.93;;;;;;;27.58;55.94;64864.22;5043606;28;20251;-77
2022/07/26 08:22:19;;;;;;;19.33;13.15;;;;;;;27.53;53.34;64850.59;5039321;28;20444;-77
2022/07/26 08:24:46;;;;;;;15.65;13.13;;;;;;;27.40;53.11;64836.97;5043434;28;20315;-77
2022/07/26 08:27:13;;;;;;;15.52;11.63;;;;;;;27.35;53.70;64837.50;5037592;28;20263;-77
2022/07/26 08:29:40;;;;;;;21.77;12.13;;;;;;;27.64;52.75;64864.78;5039977;28;20239;-77
2022/07/26 08:32:08;;;;;;;12.52;11.35;;;;;;;27.94;52.11;64898.91;5045484;28;20268;-77
2022/07/26 08:34:35;;;;;;;11.98;10.63;;;;;;;27.95;51.17;64899.94;5044453;28;20221;-79
2022/07/26 08:37:02;;;;;;;12.50;10.57;;;;;;;28.03;50.76;64908.34;5049310;28;20221;-78
2022/07/26 08:39:29;;;;;;;11.90;10.85;;;;;;;28.24;49.76;64930.38;5051847;28;20233;-78
2022/07/26 08:41:56;;;;;;;12.40;11.15;;;;;;;28.28;49.28;64931.97;5059165;28;20263;-78
2022/07/26 08:44:22;;;;;;;12.07;10.98;;;;;;;28.58;47.60;64968.22;5043229;28;20201;-78
2022/07/26 08:46:49;;;;;;;11.80;10.38;;;;;;;28.71;47.52;64979.25;5046386;28;20232;-78
2022/07/26 08:49:18;;;;;;;14.73;11.02;;;;;;;28.53;48.33;64955.09;5047686;28;20205;-77
2022/07/26 08:51:45;;;;;;;16.40;12.00;;;;;;;28.26;47.75;64933.03;5047203;28;20228;-78
2022/07/26 08:54:14;;;;;;;13.07;10.90;;;;;;;28.30;47.76;64934.59;5042947;28;20215;-78
2022/07/26 08:56:49;;;;;;;13.07;11.30;;;;;;;28.46;47.48;64950.88;5039685;28;20224;-76
2022/07/26 08:59:19;;;;;;;12.80;11.48;;;;;;;28.41;47.28;64946.16;5034061;28;20229;-78
2022/07/26 09:01:57;;;;;;;12.45;11.20;;;;;;;28.63;46.66;64970.84;5061303;28;20233;-77
2022/07/26 09:04:29;;;;;;;12.68;10.80;;;;;;;28.93;44.78;65000.25;5040487;28;20200;-77
2022/07/26 09:07:03;;;;;;;12.43;10.82;;;;;;;29.19;44.88;65027.59;5044317;28;20400;-77
2022/07/26 09:09:30;;;;;;;11.48;10.48;;;;;;;29.43;43.15;65052.81;5047353;28;20200;-77
2022/07/26 09:11:57;;;;;;;12.45;11.25;;;;;;;29.48;44.62;65054.91;5045191;28;20221;-77
2022/07/26 09:14:36;;;;;;;12.32;10.60;;;;;;;29.50;43.46;65060.16;5043810;28;20201;-77
2022/07/26 09:17:04;;;;;;;13.35;11.60;;;;;;;29.47;42.83;65059.09;5033903;28;20541;-77
2022/07/26 09:19:35;;;;;;;11.48;10.40;;;;;;;29.39;43.28;65050.69;5047236;28;20287;-76
2022/07/26 09:22:08;;;;;;;14.60;10.52;;;;;;;29.03;43.35;65010.75;5040172;28;20406;-76
2022/07/26 09:24:36;;;;;;;14.18;11.00;;;;;;;29.02;44.24;65014.97;5041803;28;20197;-77
2022/07/26 09:27:06;;;;;;;12.50;11.27;;;;;;;29.28;44.27;65036.53;5047858;28;20517;-77
2022/07/26 09:29:44;;;;;;;12.27;11.15;;;;;;;29.28;44.46;65037.06;5047010;28;20506;-77
2022/07/26 09:32:15;;;;;;;12.07;10.90;;;;;;;29.28;45.60;65039.69;5037670;28;20291;-78
2022/07/26 09:34:44;;;;;;;12.70;11.38;;;;;;;29.47;44.63;65061.72;5043493;28;20304;-78
2022/07/26 09:37:11;;;;;;;19.95;11.50;;;;;;;29.76;44.05;65089.59;5047111;28;20217;-78
2022/07/26 09:39:54;;;;;;;13.52;12.13;;;;;;;29.95;41.90;65109.56;5047815;28;20316;-78
2022/07/26 09:42:22;;;;;;;11.77;10.52;;;;;;;29.78;41.37;65091.72;5044017;28;20367;-77
2022/07/26 09:44:49;;;;;;;11.88;10.68;;;;;;;29.86;42.30;65097.47;5044238;28;20220;-78
2022/07/26 09:47:16;;;;;;;13.50;11.85;;;;;;;29.99;41.91;65110.63;5047044;28;20304;-78
2022/07/26 09:49:45;;;;;;;13.95;11.27;;;;;;;29.99;40.45;65110.63;5046992;28;20235;-77
2022/07/26 09:52:17;;;;;;;12.32;10.95;;;;;;;29.88;41.64;65102.22;5045842;28;20460;-77
2022/07/26 09:54:46;;;;;;;10.95;10.05;;;;;;;29.95;39.92;65103.78;5039046;28;20240;-75
2022/07/26 09:57:16;;;;;;;11.52;10.40;;;;;;;29.57;41.34;65072.25;5043509;28;20213;-77
2022/07/26 09:59:43;;;;;;;12.27;11.07;;;;;;;29.15;40.78;65022.84;5045444;28;20402;-76
2022/07/26 10:02:12;;;;;;;12.27;10.98;;;;;;;29.38;43.05;65050.19;5044661;28;20283;-78
2022/07/26 10:04:39;;;;;;;11.93;10.93;;;;;;;29.47;41.81;65053.84;5041167;28;20201;-77
2022/07/26 10:07:07;;;;;;;12.23;11.02;;;;;;;29.50;42.30;65059.63;5045222;28;20252;-77
2022/07/26 10:09:42;;;;;;;12.32;11.10;;;;;;;29.84;42.47;65097.50;5044511;28;20209;-77
2022/07/26 10:12:12;;;;;;;14.07;11.13;;;;;;;29.92;41.37;65103.28;5043755;28;20441;-77
2022/07/26 10:14:45;;;;;;;12.77;11.57;;;;;;;30.14;40.15;65126.41;5037184;28;20205;-78
2022/07/26 10:17:40;;;;;;;13.52;11.98;;;;;;;30.21;40.07;65136.91;5044818;28;20453;-78
2022/07/26 10:20:10;;;;;;;12.63;11.38;;;;;;;30.40;41.28;65156.38;5007689;28;20233;-77
2022/07/26 10:22:44;;;;;;;12.27;11.00;;;;;;;30.31;40.29;65147.44;5045023;28;20217;-78
2022/07/26 10:25:47;;;;;;;12.68;11.13;;;;;;;30.39;41.04;65158.47;5042667;28;20224;-78
2022/07/26 10:28:26;;;;;;;12.13;10.95;;;;;;;30.79;40.76;65196.88;5041594;28;20231;-77
2022/07/26 10:31:14;;;;;;;12.43;11.15;;;;;;;30.76;38.00;65194.25;5037393;28;20391;-79
2022/07/26 10:33:46;;;;;;;12.77;10.93;;;;;;;30.92;37.42;65213.19;5034944;28;20221;-77
2022/07/26 10:36:22;;;;;;;12.82;11.52;;;;;;;30.77;38.32;65192.13;5042261;28;20518;-78
2022/07/26 10:39:05;;;;;;;12.40;11.18;;;;;;;30.66;38.43;65180.56;5044991;28;20236;-77
2022/07/26 10:41:33;;;;;;;12.20;11.10;;;;;;;30.81;37.37;65198.97;5044679;28;20498;-79
2022/07/26 10:44:18;;;;;;;13.80;11.82;;;;;;;30.94;38.04;65210.56;5043162;28;20382;-78
2022/07/26 10:46:56;;;;;;;13.00;11.38;;;;;;;30.95;38.82;65216.88;5043735;28;20303;-79
2022/07/26 10:49:30;;;;;;;12.48;11.38;;;;;;;31.00;38.37;65216.88;5037485;28;20251;-78
2022/07/26 10:52:10;;;;;;;11.27;10.23;;;;;;;31.02;36.45;65221.09;5034532;28;20468;-77
2022/07/26 10:55:13;;;;;;;10.68;9.77;;;;;;;30.96;35.27;65214.78;5050058;28;20205;-77
2022/07/26 10:57:42;;;;;;;10.45;9.43;;;;;;;30.83;35.43;65203.72;5040979;28;20578;-78
2022/07/26 11:00:13;;;;;;;11.13;10.18;;;;;;;31.03;36.78;65222.66;5028113;28;20432;-78
2022/07/26 11:02:42;;;;;;;12.27;10.18;;;;;;;31.31;38.48;65248.97;5044144;28;20229;-77
2022/07/26 11:05:15;;;;;;;12.20;11.00;;;;;;;31.60;39.05;65285.28;5044371;28;20216;-78
2022/07/26 11:07:57;;;;;;;12.13;10.88;;;;;;;31.69;37.65;65288.97;5043323;28;20229;-79
2022/07/26 11:10:27;;;;;;;12.07;10.98;;;;;;;31.85;36.63;65303.19;5041631;28;20502;-77
2022/07/26 11:13:19;;;;;;;12.40;11.30;;;;;;;31.88;37.78;65311.09;5045816;28;20252;-77
2022/07/26 11:15:48;;;;;;;13.07;10.85;;;;;;;32.00;36.85;65329.53;5049838;28;20205;-77
2022/07/26 11:18:22;;;;;;;10.93;9.88;;;;;;;31.90;33.89;65316.38;5032282;28;20213;-79
2022/07/26 11:20:51;;;;;;;12.35;11.02;;;;;;;31.97;33.51;65326.38;5037929;28;20264;-78
2022/07/26 11:23:37;;;;;;;11.82;10.82;;;;;;;32.16;32.84;65335.81;5045036;28;20232;-77
2022/07/26 11:26:13;;;;;;;10.73;9.85;;;;;;;32.06;32.96;65333.22;5044221;28;20247;-78
2022/07/26 11:28:59;;;;;;;14.88;10.57;;;;;;;32.05;32.88;65331.63;5039983;28;20225;-77